Time;durP1;ratioP1;P1;durP2;ratioP2;P2;SDS_P1;SDS_P2;PMS_P1;PMS_P2;Temp;Humidity;BMP_temperature;BMP_pressure;BME280_temperature;BME280_humidity;BME280_pressure;Samples;Min_cycle;Max_cycle;Signal;HPM_P1;HPM_P2
2021/10/30 00:00:11;;;;;;;10.65;7.80;;;;;;;;;;5016447;28;20194;-72
2021/10/30 00:02:37;;;;;;;10.32;7.30;;;;;;;;;;5007513;28;20197;-72
2021/10/30 00:05:04;;;;;;;10.40;8.07;;;;;;;;;;5016492;28;20194;-72
2021/10/30 00:07:29;;;;;;;11.25;7.93;;;;;;;;;;5007353;28;20214;-72
2021/10/30 00:09:55;;;;;;;14.38;9.02;;;;;;;;;;5012301;28;20230;-74
2021/10/30 00:12:20;;;;;;;12.80;8.43;;;;;;;;;;5008829;28;20190;-72
2021/10/30 00:14:48;;;;;;;12.50;9.15;;;;;;;;;;5017034;28;20251;-72
2021/10/30 00:17:14;;;;;;;11.38;9.00;;;;;;;;;;5010394;28;20189;-72
2021/10/30 00:19:40;;;;;;;13.43;9.55;;;;;;;;;;5018343;28;20553;-73
2021/10/30 00:22:06;;;;;;;16.75;10.38;;;;;;;;;;5014160;28;20201;-71
2021/10/30 00:24:32;;;;;;;11.75;10.13;;;;;;;;;;5019909;28;20198;-72
2021/10/30 00:26:58;;;;;;;13.65;9.60;;;;;;;;;;5014356;28;20608;-72
2021/10/30 00:29:23;;;;;;;17.10;10.75;;;;;;;;;;5023240;28;20206;-72
2021/10/30 00:31:48;;;;;;;13.45;10.60;;;;;;;;;;5023346;28;20198;-72
2021/10/30 00:34:14;;;;;;;17.73;10.70;;;;;;;;;;5013269;28;20853;-72
2021/10/30 00:36:40;;;;;;;15.95;9.82;;;;;;;;;;5022709;28;20182;-72
2021/10/30 00:39:05;;;;;;;14.05;9.48;;;;;;;;;;5014159;28;20194;-72
2021/10/30 00:41:30;;;;;;;16.10;10.45;;;;;;;;;;5023110;28;20185;-72
2021/10/30 00:43:56;;;;;;;13.68;10.02;;;;;;;;;;5013924;28;20557;-72
2021/10/30 00:46:21;;;;;;;15.43;10.38;;;;;;;;;;5024301;28;20277;-72
2021/10/30 00:48:46;;;;;;;16.95;10.55;;;;;;;;;;5013658;28;20210;-72
2021/10/30 00:51:13;;;;;;;14.52;10.45;;;;;;;;;;5023945;28;20197;-72
2021/10/30 00:53:39;;;;;;;14.30;10.00;;;;;;;;;;5016086;28;20197;-71
2021/10/30 00:56:05;;;;;;;15.77;10.55;;;;;;;;;;5022009;28;20205;-72
2021/10/30 00:58:36;;;;;;;13.25;9.48;;;;;;;;;;5011923;28;20194;-72
2021/10/30 01:01:04;;;;;;;16.65;11.10;;;;;;;;;;5023269;28;20662;-72
2021/10/30 01:03:31;;;;;;;18.13;11.38;;;;;;;;;;5022525;28;20641;-72
2021/10/30 01:05:57;;;;;;;14.32;11.43;;;;;;;;;;5013291;28;20182;-73
2021/10/30 01:08:22;;;;;;;15.70;12.07;;;;;;;;;;5021718;28;20205;-72
2021/10/30 01:10:48;;;;;;;18.70;12.63;;;;;;;;;;5012124;28;20245;-71
2021/10/30 01:13:14;;;;;;;18.42;12.68;;;;;;;;;;5023411;28;20190;-72
2021/10/30 01:15:39;;;;;;;21.77;13.55;;;;;;;;;;5012885;28;20232;-72
2021/10/30 01:18:06;;;;;;;19.95;13.45;;;;;;;;;;5023021;28;20265;-71
2021/10/30 01:20:32;;;;;;;21.85;13.75;;;;;;;;;;5012420;28;20190;-72
2021/10/30 01:22:58;;;;;;;25.08;15.02;;;;;;;;;;5022750;28;20258;-72
2021/10/30 01:25:23;;;;;;;19.50;13.75;;;;;;;;;;5013368;28;20334;-71
2021/10/30 01:27:51;;;;;;;21.15;14.75;;;;;;;;;;5022551;28;20222;-72
2021/10/30 01:30:18;;;;;;;22.95;14.93;;;;;;;;;;5012507;28;20773;-71
2021/10/30 01:32:53;;;;;;;24.02;16.00;;;;;;;;;;5023335;28;20544;-72
2021/10/30 01:35:28;;;;;;;21.73;15.43;;;;;;;;;;5014982;28;20205;-72
2021/10/30 01:37:55;;;;;;;23.45;15.18;;;;;;;;;;5021366;28;20166;-72
2021/10/30 01:40:21;;;;;;;23.00;16.08;;;;;;;;;;5019652;28;20660;-71
2021/10/30 01:42:54;;;;;;;24.95;16.52;;;;;;;;;;5012083;28;20645;-72
2021/10/30 01:45:19;;;;;;;27.23;16.67;;;;;;;;;;5019544;28;20222;-72
2021/10/30 01:47:45;;;;;;;25.55;16.65;;;;;;;;;;5008638;28;20238;-72
2021/10/30 01:50:14;;;;;;;30.17;18.15;;;;;;;;;;5020538;28;20636;-73
2021/10/30 01:52:40;;;;;;;27.90;17.83;;;;;;;;;;5012953;28;20547;-72
2021/10/30 01:55:10;;;;;;;33.30;19.45;;;;;;;;;;5019704;28;20193;-73
2021/10/30 01:57:36;;;;;;;25.00;16.95;;;;;;;;;;5009774;28;20272;-72
2021/10/30 02:00:04;;;;;;;31.05;19.23;;;;;;;;;;5020095;28;20201;-71
2021/10/30 02:02:29;;;;;;;29.25;19.25;;;;;;;;;;5011341;28;20221;-71
2021/10/30 02:04:54;;;;;;;32.15;19.98;;;;;;;;;;5019915;28;20569;-71
2021/10/30 02:07:20;;;;;;;32.85;20.75;;;;;;;;;;5011165;28;20182;-72
2021/10/30 02:09:45;;;;;;;28.80;19.10;;;;;;;;;;5019958;28;20229;-72
2021/10/30 02:12:11;;;;;;;32.60;20.95;;;;;;;;;;5017658;28;20192;-72
2021/10/30 02:14:36;;;;;;;31.45;21.42;;;;;;;;;;5012416;28;20659;-72
2021/10/30 02:17:01;;;;;;;29.85;20.27;;;;;;;;;;5020427;28;20212;-70
2021/10/30 02:19:27;;;;;;;37.15;21.65;;;;;;;;;;5011093;28;20193;-71
2021/10/30 02:21:52;;;;;;;34.10;21.50;;;;;;;;;;5021358;28;20634;-71
2021/10/30 02:24:18;;;;;;;33.22;21.80;;;;;;;;;;5011276;28;20609;-71
2021/10/30 02:26:43;;;;;;;35.45;20.55;;;;;;;;;;5020149;28;20193;-72
2021/10/30 02:29:08;;;;;;;35.30;20.80;;;;;;;;;;5011381;28;20225;-72
2021/10/30 02:31:33;;;;;;;32.42;21.02;;;;;;;;;;5019243;28;20190;-71
2021/10/30 02:33:59;;;;;;;34.20;21.60;;;;;;;;;;5012961;28;20217;-72
2021/10/30 02:36:24;;;;;;;30.27;20.70;;;;;;;;;;5018413;28;20638;-72
2021/10/30 02:38:50;;;;;;;36.47;22.33;;;;;;;;;;5012426;28;20182;-72
2021/10/30 02:41:15;;;;;;;34.35;21.08;;;;;;;;;;5016074;28;20282;-71
2021/10/30 02:43:41;;;;;;;37.90;23.08;;;;;;;;;;5021621;28;20585;-71
2021/10/30 02:46:06;;;;;;;35.92;22.40;;;;;;;;;;5012106;28;20198;-71
2021/10/30 02:48:32;;;;;;;31.70;21.20;;;;;;;;;;5019200;28;20209;-71
2021/10/30 02:50:57;;;;;;;31.85;21.48;;;;;;;;;;5011704;28;20194;-72
2021/10/30 02:53:23;;;;;;;34.85;22.33;;;;;;;;;;5021457;28;20535;-72
2021/10/30 02:55:48;;;;;;;33.67;21.90;;;;;;;;;;5009552;28;20232;-72
2021/10/30 02:58:14;;;;;;;36.22;22.25;;;;;;;;;;5019862;28;20633;-72
2021/10/30 03:00:39;;;;;;;32.33;21.90;;;;;;;;;;5011576;28;20228;-71
2021/10/30 03:03:04;;;;;;;36.15;23.10;;;;;;;;;;5019328;28;20268;-72
2021/10/30 03:05:30;;;;;;;39.00;22.45;;;;;;;;;;5008745;28;20201;-72
2021/10/30 03:07:55;;;;;;;34.75;21.38;;;;;;;;;;5019531;28;20214;-72
2021/10/30 03:10:21;;;;;;;32.10;20.60;;;;;;;;;;5014566;28;20222;-72
2021/10/30 03:12:48;;;;;;;34.83;20.95;;;;;;;;;;5016581;28;20186;-72
2021/10/30 03:15:15;;;;;;;32.72;21.42;;;;;;;;;;5019538;28;20189;-71
2021/10/30 03:17:40;;;;;;;33.60;20.52;;;;;;;;;;5009687;28;20807;-72
2021/10/30 03:20:07;;;;;;;29.77;21.73;;;;;;;;;;5019116;28;20194;-72
2021/10/30 03:22:33;;;;;;;27.92;19.75;;;;;;;;;;5012504;28;20198;-72
2021/10/30 03:24:58;;;;;;;31.85;20.20;;;;;;;;;;5019357;28;20207;-72
2021/10/30 03:27:24;;;;;;;32.28;20.27;;;;;;;;;;5010865;28;20218;-71
2021/10/30 03:29:49;;;;;;;28.20;19.83;;;;;;;;;;5019650;28;20233;-71
2021/10/30 03:32:15;;;;;;;28.25;18.98;;;;;;;;;;5008865;28;20626;-72
2021/10/30 03:34:40;;;;;;;28.42;18.67;;;;;;;;;;5017232;28;20653;-71
2021/10/30 03:37:06;;;;;;;30.55;19.60;;;;;;;;;;5010748;28;20598;-72
2021/10/30 03:39:31;;;;;;;29.27;18.88;;;;;;;;;;5018801;28;20212;-71
2021/10/30 03:41:57;;;;;;;28.45;19.05;;;;;;;;;;5017428;28;20202;-72
2021/10/30 03:44:22;;;;;;;24.27;17.65;;;;;;;;;;5009589;28;20186;-72
2021/10/30 03:46:47;;;;;;;29.90;18.98;;;;;;;;;;5016569;28;20653;-72
2021/10/30 03:49:13;;;;;;;29.30;18.35;;;;;;;;;;5009189;28;20221;-72
2021/10/30 03:51:38;;;;;;;30.17;18.33;;;;;;;;;;5018265;28;20204;-72
2021/10/30 03:54:04;;;;;;;27.27;19.40;;;;;;;;;;5011018;28;20202;-72
2021/10/30 03:56:29;;;;;;;24.77;17.70;;;;;;;;;;5017563;28;20321;-72
2021/10/30 03:58:55;;;;;;;24.52;17.63;;;;;;;;;;5010815;28;20250;-72
2021/10/30 04:01:20;;;;;;;23.77;17.05;;;;;;;;;;5015958;28;20194;-72
2021/10/30 04:03:45;;;;;;;23.23;16.40;;;;;;;;;;5009794;28;20194;-72
2021/10/30 04:06:11;;;;;;;24.35;17.10;;;;;;;;;;5018807;28;20197;-72
2021/10/30 04:08:36;;;;;;;27.13;16.83;;;;;;;;;;5010894;28;20595;-72
2021/10/30 04:11:02;;;;;;;26.67;16.45;;;;;;;;;;5018778;28;20271;-71
2021/10/30 04:13:27;;;;;;;23.65;15.90;;;;;;;;;;5019241;28;20205;-72
2021/10/30 04:15:52;;;;;;;24.83;15.57;;;;;;;;;;5009614;28;20198;-72
2021/10/30 04:18:18;;;;;;;21.92;15.60;;;;;;;;;;5016502;28;20605;-71
2021/10/30 04:20:43;;;;;;;22.33;14.77;;;;;;;;;;5008926;28;20269;-72
2021/10/30 04:23:08;;;;;;;19.10;14.43;;;;;;;;;;5017993;28;20210;-72
2021/10/30 04:25:34;;;;;;;18.58;14.15;;;;;;;;;;5009755;28;20236;-72
2021/10/30 04:27:59;;;;;;;17.40;12.95;;;;;;;;;;5016349;28;20244;-72
2021/10/30 04:30:24;;;;;;;21.40;13.32;;;;;;;;;;5006734;28;20634;-72
2021/10/30 04:32:50;;;;;;;18.95;12.40;;;;;;;;;;5017139;28;20611;-72
2021/10/30 04:35:15;;;;;;;17.77;12.32;;;;;;;;;;5010060;28;20248;-72
2021/10/30 04:37:41;;;;;;;14.52;11.23;;;;;;;;;;5016689;28;20179;-72
2021/10/30 04:40:07;;;;;;;19.23;11.95;;;;;;;;;;5016313;28;20282;-73
2021/10/30 04:42:32;;;;;;;17.38;11.80;;;;;;;;;;5016387;28;20268;-72
2021/10/30 04:44:58;;;;;;;15.52;10.70;;;;;;;;;;5018713;28;20225;-71
2021/10/30 04:47:23;;;;;;;16.58;10.23;;;;;;;;;;5008602;28;20202;-72
2021/10/30 04:49:49;;;;;;;17.08;10.25;;;;;;;;;;5018906;28;20198;-72
2021/10/30 04:52:15;;;;;;;17.33;10.50;;;;;;;;;;5009527;28;20194;-72
2021/10/30 04:54:42;;;;;;;15.13;9.25;;;;;;;;;;5014486;28;20182;-72
2021/10/30 04:57:07;;;;;;;13.15;8.77;;;;;;;;;;5007142;28;20218;-71
2021/10/30 04:59:33;;;;;;;16.58;9.10;;;;;;;;;;5022253;28;20239;-71
2021/10/30 05:01:58;;;;;;;12.82;8.48;;;;;;;;;;5011564;28;20209;-71
2021/10/30 05:04:24;;;;;;;13.00;8.25;;;;;;;;;;5022539;28;20272;-71
2021/10/30 05:06:49;;;;;;;12.45;7.70;;;;;;;;;;5011113;28;20665;-71
2021/10/30 05:09:15;;;;;;;11.45;7.60;;;;;;;;;;5017105;28;20225;-71
2021/10/30 05:11:40;;;;;;;12.05;8.05;;;;;;;;;;5019131;28;20618;-71
2021/10/30 05:14:06;;;;;;;10.90;7.40;;;;;;;;;;5011168;28;20197;-71
2021/10/30 05:16:31;;;;;;;11.05;7.78;;;;;;;;;;5019177;28;20174;-71
2021/10/30 05:18:56;;;;;;;11.05;7.75;;;;;;;;;;5011543;28;20182;-70
2021/10/30 05:21:22;;;;;;;11.85;7.38;;;;;;;;;;5020635;28;20194;-71
2021/10/30 05:23:47;;;;;;;11.13;7.50;;;;;;;;;;5012661;28;20209;-71
2021/10/30 05:26:12;;;;;;;12.43;7.63;;;;;;;;;;5020375;28;20182;-71
2021/10/30 05:28:38;;;;;;;10.30;7.35;;;;;;;;;;5010912;28;20220;-71
2021/10/30 05:31:03;;;;;;;14.13;7.55;;;;;;;;;;5021050;28;20186;-71
2021/10/30 05:33:29;;;;;;;11.50;7.00;;;;;;;;;;5021688;28;20258;-71
2021/10/30 05:35:54;;;;;;;11.18;6.78;;;;;;;;;;5019966;28;20190;-72
2021/10/30 05:38:19;;;;;;;12.88;7.38;;;;;;;;;;5012899;28;20198;-71
2021/10/30 05:40:45;;;;;;;9.57;6.65;;;;;;;;;;5018386;28;20200;-71
2021/10/30 05:43:12;;;;;;;11.85;7.10;;;;;;;;;;5020019;28;20201;-72
2021/10/30 05:45:43;;;;;;;12.73;7.10;;;;;;;;;;5013381;28;20630;-72
2021/10/30 05:48:10;;;;;;;10.18;6.28;;;;;;;;;;5018585;28;20215;-71
2021/10/30 05:50:35;;;;;;;12.52;6.65;;;;;;;;;;5012567;28;20336;-71
2021/10/30 05:53:01;;;;;;;12.55;6.25;;;;;;;;;;5018367;28;20272;-72
2021/10/30 05:55:27;;;;;;;9.15;5.60;;;;;;;;;;5012271;28;20807;-71
2021/10/30 05:57:52;;;;;;;9.68;5.88;;;;;;;;;;5029013;28;20209;-73
2021/10/30 06:00:18;;;;;;;9.70;6.15;;;;;;;;;;5010187;28;20190;-72
2021/10/30 06:02:43;;;;;;;9.02;5.65;;;;;;;;;;5019954;28;20194;-73
2021/10/30 06:05:09;;;;;;;9.90;5.10;;;;;;;;;;5009266;28;20289;-73
2021/10/30 06:07:34;;;;;;;8.73;5.72;;;;;;;;;;5014906;28;20218;-72
2021/10/30 06:10:00;;;;;;;6.93;5.60;;;;;;;;;;5009410;28;20237;-71
2021/10/30 06:12:26;;;;;;;9.48;5.55;;;;;;;;;;5011348;28;20190;-72
2021/10/30 06:14:52;;;;;;;12.50;6.47;;;;;;;;;;5014156;28;20201;-72
2021/10/30 06:17:17;;;;;;;8.48;5.55;;;;;;;;;;5004254;28;20232;-73
2021/10/30 06:19:42;;;;;;;8.38;5.85;;;;;;;;;;5014732;28;20239;-73
2021/10/30 06:22:08;;;;;;;9.32;5.60;;;;;;;;;;5006371;28;20186;-72
2021/10/30 06:24:33;;;;;;;8.35;5.70;;;;;;;;;;5017627;28;20206;-72
2021/10/30 06:26:59;;;;;;;11.30;6.32;;;;;;;;;;5010921;28;20201;-72
2021/10/30 06:29:28;;;;;;;8.98;6.25;;;;;;;;;;5018127;28;21442;-73
2021/10/30 06:31:53;;;;;;;7.88;6.13;;;;;;;;;;5010315;28;20665;-75
2021/10/30 06:34:20;;;;;;;9.40;6.30;;;;;;;;;;5018147;28;20182;-74
2021/10/30 06:36:45;;;;;;;9.70;6.55;;;;;;;;;;5009726;28;20992;-75
2021/10/30 06:39:11;;;;;;;12.20;6.30;;;;;;;;;;5019906;28;20198;-74
2021/10/30 06:41:36;;;;;;;12.63;6.75;;;;;;;;;;5017279;28;20191;-71
2021/10/30 06:44:02;;;;;;;10.32;6.70;;;;;;;;;;5013212;28;20190;-73
2021/10/30 06:46:27;;;;;;;8.38;6.40;;;;;;;;;;5019536;28;20522;-74
2021/10/30 06:48:55;;;;;;;11.93;6.25;;;;;;;;;;5010937;28;20210;-73
2021/10/30 06:51:22;;;;;;;8.60;6.70;;;;;;;;;;5019271;28;20189;-72
2021/10/30 06:53:47;;;;;;;9.98;6.70;;;;;;;;;;5010446;28;20608;-72
2021/10/30 06:56:13;;;;;;;12.32;8.07;;;;;;;;;;5018073;28;20301;-71
2021/10/30 06:58:38;;;;;;;12.00;9.05;;;;;;;;;;5009496;28;20196;-72
2021/10/30 07:01:03;;;;;;;12.88;8.27;;;;;;;;;;5018044;28;20190;-73
2021/10/30 07:03:29;;;;;;;14.27;8.95;;;;;;;;;;5008966;28;20723;-74
2021/10/30 07:05:54;;;;;;;13.43;8.65;;;;;;;;;;5018368;28;20627;-72
2021/10/30 07:08:20;;;;;;;16.05;8.63;;;;;;;;;;5006818;28;20214;-74
2021/10/30 07:10:45;;;;;;;12.00;8.50;;;;;;;;;;5018100;28;20230;-73
2021/10/30 07:13:11;;;;;;;16.02;9.55;;;;;;;;;;5018684;28;20182;-74
2021/10/30 07:15:37;;;;;;;13.20;8.48;;;;;;;;;;5012341;28;20190;-74
2021/10/30 07:18:02;;;;;;;14.88;9.32;;;;;;;;;;5019547;28;20829;-74
2021/10/30 07:20:28;;;;;;;14.80;8.43;;;;;;;;;;5009966;28;20197;-73
2021/10/30 07:22:53;;;;;;;13.82;8.25;;;;;;;;;;5018987;28;20182;-72
2021/10/30 07:25:21;;;;;;;13.50;8.05;;;;;;;;;;5008019;28;20643;-73
2021/10/30 07:27:48;;;;;;;15.00;8.57;;;;;;;;;;5019167;28;20224;-72
2021/10/30 07:30:13;;;;;;;17.27;8.95;;;;;;;;;;5012968;28;20669;-74
2021/10/30 07:32:39;;;;;;;15.77;9.05;;;;;;;;;;5019332;28;20203;-74
2021/10/30 07:35:05;;;;;;;17.80;8.90;;;;;;;;;;5010203;28;20197;-73
2021/10/30 07:37:31;;;;;;;15.55;8.45;;;;;;;;;;5019292;28;20190;-75
2021/10/30 07:39:58;;;;;;;11.50;7.85;;;;;;;;;;5012238;28;20216;-75
2021/10/30 07:42:24;;;;;;;17.52;9.00;;;;;;;;;;5019600;28;20186;-73
2021/10/30 07:44:50;;;;;;;13.30;8.95;;;;;;;;;;5021543;28;20198;-73
2021/10/30 07:47:15;;;;;;;14.65;8.00;;;;;;;;;;5007779;28;20186;-75
2021/10/30 07:49:41;;;;;;;11.15;8.07;;;;;;;;;;5018419;28;20206;-75
2021/10/30 07:52:08;;;;;;;12.00;8.00;;;;;;;;;;5011619;28;20194;-75
2021/10/30 07:54:34;;;;;;;15.50;8.23;;;;;;;;;;5018593;28;20555;-76
2021/10/30 07:57:02;;;;;;;12.55;8.02;;;;;;;;;;5011951;28;20206;-75
2021/10/30 07:59:28;;;;;;;14.15;8.20;;;;;;;;;;5019129;28;20194;-75
2021/10/30 08:01:53;;;;;;;10.93;7.85;;;;;;;;;;5009546;28;20194;-75
2021/10/30 08:04:20;;;;;;;12.95;7.97;;;;;;;;;;5015766;28;20677;-75
2021/10/30 08:06:46;;;;;;;11.43;7.95;;;;;;;;;;5010485;28;21286;-74
2021/10/30 08:09:11;;;;;;;11.80;7.95;;;;;;;;;;5016285;28;20217;-74
2021/10/30 08:11:36;;;;;;;12.98;7.50;;;;;;;;;;5007431;28;20303;-73
2021/10/30 08:14:02;;;;;;;9.93;7.32;;;;;;;;;;5016958;28;20197;-73
2021/10/30 08:16:28;;;;;;;13.65;7.20;;;;;;;;;;5017446;28;20197;-73
2021/10/30 08:18:54;;;;;;;8.07;6.55;;;;;;;;;;5008559;28;20680;-73
2021/10/30 08:21:20;;;;;;;8.77;6.95;;;;;;;;;;5015935;28;20196;-72
2021/10/30 08:23:46;;;;;;;11.98;7.22;;;;;;;;;;5009245;28;20434;-73
2021/10/30 08:26:12;;;;;;;9.10;6.43;;;;;;;;;;5027524;28;20280;-73
2021/10/30 08:28:37;;;;;;;10.10;6.53;;;;;;;;;;5009183;28;20301;-73
2021/10/30 08:31:02;;;;;;;10.68;6.50;;;;;;;;;;5015688;28;20304;-74
2021/10/30 08:33:28;;;;;;;12.90;7.18;;;;;;;;;;5012235;28;20193;-73
2021/10/30 08:35:53;;;;;;;10.80;6.55;;;;;;;;;;5022275;28;20193;-72
2021/10/30 08:38:18;;;;;;;9.50;6.68;;;;;;;;;;5011765;28;20232;-74
2021/10/30 08:40:44;;;;;;;8.80;6.15;;;;;;;;;;5021827;28;20182;-74
2021/10/30 08:43:17;;;;;;;10.18;6.53;;;;;;;;;;5014108;28;20198;-72
2021/10/30 08:45:43;;;;;;;13.60;6.13;;;;;;;;;;5020532;28;20193;-73
2021/10/30 08:48:10;;;;;;;7.35;6.30;;;;;;;;;;5022212;28;20244;-74
2021/10/30 08:50:35;;;;;;;11.50;6.75;;;;;;;;;;5012542;28;20194;-74
2021/10/30 08:53:01;;;;;;;8.60;6.38;;;;;;;;;;5024395;28;20200;-73
2021/10/30 08:55:27;;;;;;;9.15;6.20;;;;;;;;;;5010341;28;20190;-73
2021/10/30 08:57:53;;;;;;;8.60;5.90;;;;;;;;;;5022125;28;20198;-73
2021/10/30 09:00:25;;;;;;;8.20;6.18;;;;;;;;;;5012299;28;20996;-72
2021/10/30 09:03:03;;;;;;;9.60;5.53;;;;;;;;;;5022025;28;20289;-71
2021/10/30 09:05:31;;;;;;;9.48;6.20;;;;;;;;;;5013313;28;20550;-73
2021/10/30 09:07:59;;;;;;;7.28;5.63;;;;;;;;;;5021198;28;20675;-71
2021/10/30 09:10:25;;;;;;;8.60;6.38;;;;;;;;;;5011114;28;20756;-72
2021/10/30 09:12:53;;;;;;;8.90;6.47;;;;;;;;;;5021382;28;20190;-73
2021/10/30 09:15:33;;;;;;;7.90;5.13;;;;;;;;;;5009195;28;20247;-73
2021/10/30 09:17:59;;;;;;;9.05;5.78;;;;;;;;;;5022919;28;20186;-72
2021/10/30 09:20:36;;;;;;;10.10;6.00;;;;;;;;;;5013523;28;20217;-72
2021/10/30 09:23:02;;;;;;;8.10;5.15;;;;;;;;;;5020313;28;20192;-71
2021/10/30 09:25:27;;;;;;;11.52;5.30;;;;;;;;;;5012834;28;20252;-72
2021/10/30 09:28:01;;;;;;;8.63;5.50;;;;;;;;;;5022876;28;20711;-72
2021/10/30 09:30:36;;;;;;;9.45;5.50;;;;;;;;;;5009885;28;20193;-72
2021/10/30 09:33:06;;;;;;;6.63;4.80;;;;;;;;;;5020545;28;20193;-72
2021/10/30 09:35:46;;;;;;;7.28;5.25;;;;;;;;;;5017496;28;20189;-73
2021/10/30 09:38:21;;;;;;;7.43;5.32;;;;;;;;;;5019070;28;20213;-72
2021/10/30 09:40:47;;;;;;;6.88;5.03;;;;;;;;;;5020672;28;20224;-74
2021/10/30 09:43:15;;;;;;;7.43;5.07;;;;;;;;;;5007847;28;20186;-72
2021/10/30 09:45:48;;;;;;;5.63;5.03;;;;;;;;;;5017366;28;20296;-70
2021/10/30 09:48:24;;;;;;;8.60;5.30;;;;;;;;;;5006774;28;20217;-71
2021/10/30 09:50:52;;;;;;;7.65;5.00;;;;;;;;;;5016005;28;20248;-72
2021/10/30 09:53:32;;;;;;;8.35;5.30;;;;;;;;;;5010490;28;20197;-71
2021/10/30 09:56:12;;;;;;;8.23;5.00;;;;;;;;;;5016570;28;20218;-72
2021/10/30 09:58:46;;;;;;;8.30;4.90;;;;;;;;;;5011801;28;20289;-72
2021/10/30 10:01:19;;;;;;;7.63;4.97;;;;;;;;;;5017488;28;20201;-72
2021/10/30 10:03:47;;;;;;;10.52;5.13;;;;;;;;;;5009997;28;20575;-72
2021/10/30 10:06:14;;;;;;;8.13;5.38;;;;;;;;;;5018516;28;20190;-72
2021/10/30 10:08:44;;;;;;;7.75;5.68;;;;;;;;;;5009135;28;20205;-73
2021/10/30 10:11:12;;;;;;;6.85;4.90;;;;;;;;;;5016420;28;20226;-70
2021/10/30 10:13:40;;;;;;;8.40;5.25;;;;;;;;;;5009709;28;20194;-71
2021/10/30 10:16:11;;;;;;;9.30;5.70;;;;;;;;;;5019666;28;20639;-71
2021/10/30 10:18:37;;;;;;;8.32;5.20;;;;;;;;;;4312277;28;10001403;-73
2021/10/30 10:21:03;;;;;;;6.40;4.97;;;;;;;;;;5014752;28;20198;-71
2021/10/30 10:23:28;;;;;;;7.45;5.40;;;;;;;;;;5007063;28;20189;-72
2021/10/30 10:25:55;;;;;;;7.88;5.70;;;;;;;;;;5016016;28;20225;-72
2021/10/30 10:28:33;;;;;;;7.45;5.72;;;;;;;;;;5010287;28;20206;-72
2021/10/30 10:31:12;;;;;;;8.77;5.10;;;;;;;;;;5015479;28;20548;-73
2021/10/30 10:33:40;;;;;;;7.85;5.43;;;;;;;;;;5015650;28;20186;-72
2021/10/30 10:36:16;;;;;;;6.78;4.88;;;;;;;;;;5008149;28;20194;-73
2021/10/30 10:38:57;;;;;;;6.90;4.80;;;;;;;;;;5017160;28;20198;-72
2021/10/30 10:41:37;;;;;;;7.95;4.68;;;;;;;;;;5007045;28;20236;-72
2021/10/30 10:44:16;;;;;;;5.90;4.78;;;;;;;;;;5015975;28;20302;-71
2021/10/30 10:46:49;;;;;;;6.97;4.75;;;;;;;;;;5006752;28;20197;-74
2021/10/30 10:49:40;;;;;;;6.93;4.50;;;;;;;;;;5016720;28;20213;-72
2021/10/30 10:52:17;;;;;;;6.38;4.55;;;;;;;;;;5014855;28;20284;-72
2021/10/30 10:55:04;;;;;;;7.60;4.70;;;;;;;;;;5016356;28;20185;-72
2021/10/30 10:57:33;;;;;;;7.75;4.82;;;;;;;;;;5014851;28;20218;-73
2021/10/30 11:00:20;;;;;;;6.05;4.72;;;;;;;;;;5015897;28;20193;-71
2021/10/30 11:02:49;;;;;;;12.68;4.30;;;;;;;;;;5016972;28;20196;-72
2021/10/30 11:05:23;;;;;;;5.25;4.15;;;;;;;;;;5014604;28;20649;-71
2021/10/30 11:07:48;;;;;;;10.48;4.65;;;;;;;;;;5007585;28;20777;-71
2021/10/30 11:10:26;;;;;;;6.03;3.95;;;;;;;;;;5014434;28;20226;-72
2021/10/30 11:13:00;;;;;;;10.20;4.50;;;;;;;;;;5015816;28;20620;-71
2021/10/30 11:15:38;;;;;;;5.45;4.40;;;;;;;;;;5015393;28;20283;-71
2021/10/30 11:18:10;;;;;;;6.07;4.25;;;;;;;;;;5007743;28;20186;-73
2021/10/30 11:20:42;;;;;;;6.28;4.13;;;;;;;;;;5015424;28;20658;-72
2021/10/30 11:23:25;;;;;;;6.80;4.22;;;;;;;;;;5007485;28;20654;-73
2021/10/30 11:26:07;;;;;;;8.00;4.63;;;;;;;;;;5015963;28;20208;-72
2021/10/30 11:28:33;;;;;;;7.65;3.92;;;;;;;;;;5006761;28;20277;-72
2021/10/30 11:30:59;;;;;;;4.97;3.50;;;;;;;;;;5016389;28;20247;-73
2021/10/30 11:33:28;;;;;;;6.07;4.20;;;;;;;;;;5002237;28;20209;-72
2021/10/30 11:36:08;;;;;;;6.15;3.55;;;;;;;;;;5016250;28;20302;-73
2021/10/30 11:38:45;;;;;;;5.15;3.60;;;;;;;;;;5006915;28;20194;-72
2021/10/30 11:41:14;;;;;;;7.30;4.22;;;;;;;;;;5014537;28;20221;-72
2021/10/30 11:43:41;;;;;;;6.20;3.80;;;;;;;;;;5003886;28;20186;-73
2021/10/30 11:46:12;;;;;;;7.10;3.67;;;;;;;;;;5014991;28;20280;-72
2021/10/30 11:48:56;;;;;;;8.27;3.50;;;;;;;;;;5004761;28;20216;-73
2021/10/30 11:51:25;;;;;;;5.20;3.97;;;;;;;;;;5011033;28;20661;-72
2021/10/30 11:53:52;;;;;;;5.65;3.47;;;;;;;;;;5006356;28;20563;-73
2021/10/30 11:56:28;;;;;;;7.50;3.67;;;;;;;;;;5010449;28;20541;-73
2021/10/30 11:59:05;;;;;;;8.15;4.13;;;;;;;;;;5004868;28;20192;-73
2021/10/30 12:01:33;;;;;;;5.97;3.72;;;;;;;;;;5016179;28;20193;-72
2021/10/30 12:04:01;;;;;;;7.18;3.70;;;;;;;;;;5008113;28;20685;-74
2021/10/30 12:06:28;;;;;;;7.35;3.78;;;;;;;;;;5014675;28;20518;-71
2021/10/30 12:08:56;;;;;;;4.40;3.28;;;;;;;;;;5006761;28;20247;-73
2021/10/30 12:11:23;;;;;;;5.68;3.28;;;;;;;;;;5011604;28;20250;-72
2021/10/30 12:13:50;;;;;;;4.53;3.60;;;;;;;;;;5015176;28;20622;-72
2021/10/30 12:16:16;;;;;;;5.70;3.30;;;;;;;;;;5005371;28;20877;-74
2021/10/30 12:18:42;;;;;;;4.40;3.35;;;;;;;;;;5013153;28;20186;-74
2021/10/30 12:21:10;;;;;;;6.07;3.03;;;;;;;;;;5006308;28;20186;-73
2021/10/30 12:23:52;;;;;;;5.90;3.10;;;;;;;;;;5009677;28;20194;-71
2021/10/30 12:26:18;;;;;;;5.95;3.50;;;;;;;;;;5005556;28;20310;-73
2021/10/30 12:28:43;;;;;;;5.18;3.55;;;;;;;;;;5015200;28;20205;-71
2021/10/30 12:31:12;;;;;;;7.15;3.50;;;;;;;;;;5003666;28;20210;-73
2021/10/30 12:33:38;;;;;;;6.45;3.58;;;;;;;;;;5010744;28;20194;-72
2021/10/30 12:36:05;;;;;;;5.47;3.35;;;;;;;;;;5005675;28;20672;-73
2021/10/30 12:38:31;;;;;;;6.13;3.45;;;;;;;;;;5011829;28;20194;-72
2021/10/30 12:40:57;;;;;;;6.28;3.67;;;;;;;;;;5006185;28;20425;-73
2021/10/30 12:43:26;;;;;;;5.70;3.88;;;;;;;;;;5015265;28;20548;-73
2021/10/30 12:46:02;;;;;;;5.72;3.53;;;;;;;;;;5015413;28;20490;-71
2021/10/30 12:48:36;;;;;;;5.30;3.53;;;;;;;;;;5013365;28;20693;-71
2021/10/30 12:51:05;;;;;;;8.68;3.42;;;;;;;;;;5003549;28;20405;-70
2021/10/30 12:53:33;;;;;;;4.72;3.60;;;;;;;;;;5014219;28;20256;-73
2021/10/30 12:56:13;;;;;;;6.30;3.58;;;;;;;;;;5015419;28;20253;-72
2021/10/30 12:58:58;;;;;;;6.18;3.22;;;;;;;;;;5014236;28;23736;-72
2021/10/30 13:01:31;;;;;;;4.78;3.05;;;;;;;;;;5011765;28;20194;-71
2021/10/30 13:04:08;;;;;;;6.07;3.05;;;;;;;;;;5017823;28;20244;-71
2021/10/30 13:06:36;;;;;;;5.85;3.40;;;;;;;;;;5018134;28;20186;-72
2021/10/30 13:09:07;;;;;;;3.10;2.80;;;;;;;;;;5007307;28;20217;-73
2021/10/30 13:11:32;;;;;;;5.10;2.97;;;;;;;;;;5016859;28;20236;-72
2021/10/30 13:13:58;;;;;;;4.07;3.25;;;;;;;;;;5008440;28;20194;-72
2021/10/30 13:16:23;;;;;;;5.53;3.10;;;;;;;;;;5007664;28;20183;-71
2021/10/30 13:18:49;;;;;;;4.15;3.03;;;;;;;;;;5008547;28;20586;-70
2021/10/30 13:21:23;;;;;;;4.55;2.85;;;;;;;;;;5021471;28;20190;-71
2021/10/30 13:23:50;;;;;;;4.88;3.13;;;;;;;;;;5012711;28;20182;-71
2021/10/30 13:26:17;;;;;;;3.67;2.70;;;;;;;;;;5020557;28;20198;-71
2021/10/30 13:28:42;;;;;;;5.45;3.08;;;;;;;;;;5010862;28;20224;-72
2021/10/30 13:31:08;;;;;;;5.85;3.13;;;;;;;;;;5021181;28;20194;-72
2021/10/30 13:33:33;;;;;;;4.00;3.22;;;;;;;;;;5011790;28;20198;-70
2021/10/30 13:35:58;;;;;;;5.28;3.30;;;;;;;;;;5019896;28;20194;-71
2021/10/30 13:38:24;;;;;;;5.15;3.13;;;;;;;;;;5012287;28;20186;-71
2021/10/30 13:40:49;;;;;;;4.20;2.88;;;;;;;;;;5022481;28;20190;-70
2021/10/30 13:43:14;;;;;;;4.75;3.42;;;;;;;;;;5022630;28;20833;-71
2021/10/30 13:45:40;;;;;;;6.97;3.05;;;;;;;;;;5014060;28;20930;-71
2021/10/30 13:48:05;;;;;;;4.63;3.15;;;;;;;;;;5014696;28;20831;-72
2021/10/30 13:50:31;;;;;;;5.78;3.88;;;;;;;;;;5009142;28;20296;-71
2021/10/30 13:52:57;;;;;;;5.13;3.60;;;;;;;;;;5019807;28;20560;-71
2021/10/30 13:55:22;;;;;;;5.13;3.30;;;;;;;;;;5010860;28;20597;-71
2021/10/30 13:57:47;;;;;;;4.00;3.40;;;;;;;;;;5017786;28;20220;-72
2021/10/30 14:00:13;;;;;;;4.22;3.17;;;;;;;;;;5010238;28;20204;-72
2021/10/30 14:02:39;;;;;;;5.20;3.38;;;;;;;;;;5021312;28;20190;-72
2021/10/30 14:05:05;;;;;;;5.43;3.33;;;;;;;;;;5006290;28;20229;-72
2021/10/30 14:07:33;;;;;;;6.43;3.10;;;;;;;;;;5020734;28;20190;-72
2021/10/30 14:09:58;;;;;;;4.82;3.95;;;;;;;;;;5013748;28;20237;-73
2021/10/30 14:12:24;;;;;;;5.65;3.42;;;;;;;;;;5019926;28;20191;-73
2021/10/30 14:14:49;;;;;;;4.88;3.42;;;;;;;;;;5018514;28;20240;-72
2021/10/30 14:17:15;;;;;;;6.25;2.97;;;;;;;;;;5011796;28;20178;-74
2021/10/30 14:19:41;;;;;;;10.25;3.50;;;;;;;;;;5021095;28;20190;-72
2021/10/30 14:22:06;;;;;;;8.32;3.85;;;;;;;;;;5010739;28;20585;-72
2021/10/30 14:24:31;;;;;;;5.75;3.33;;;;;;;;;;5019612;28;20190;-72
2021/10/30 14:26:57;;;;;;;5.30;3.42;;;;;;;;;;5009646;28;20872;-73
2021/10/30 14:29:23;;;;;;;6.28;3.85;;;;;;;;;;5022216;28;20238;-72
2021/10/30 14:31:52;;;;;;;6.88;3.67;;;;;;;;;;5011796;28;20313;-73